createdAt,value
2022-10-21T00:00:11.472Z,24.40
2022-10-21T00:03:11.221Z,21.60
2022-10-21T00:06:08.614Z,22.80
2022-10-21T00:09:05.452Z,20.20
2022-10-21T00:12:02.176Z,22.20
2022-10-21T00:14:59.535Z,23.60
2022-10-21T00:17:56.550Z,18.40
2022-10-21T00:20:53.381Z,22.20
2022-10-21T00:23:50.464Z,19.00
2022-10-21T00:26:49.808Z,17.00
2022-10-21T00:29:46.676Z,16.80
2022-10-21T00:32:43.636Z,19.80
2022-10-21T00:35:40.858Z,18.80
2022-10-21T00:38:38.477Z,18.80
2022-10-21T00:41:35.505Z,23.20
2022-10-21T00:44:32.446Z,18.40
2022-10-21T00:47:29.429Z,17.60
2022-10-21T00:50:31.231Z,21.60
2022-10-21T00:53:28.327Z,18.40
2022-10-21T00:56:27.260Z,21.00
2022-10-21T00:59:26.637Z,21.40
2022-10-21T01:02:23.393Z,18.60
2022-10-21T01:05:20.310Z,23.20
2022-10-21T01:08:17.499Z,17.00
2022-10-21T01:11:16.047Z,19.20
2022-10-21T01:14:32.456Z,17.60
2022-10-21T01:17:45.974Z,20.80
2022-10-21T01:21:07.612Z,13.80
2022-10-21T01:25:09.023Z,20.20
2022-10-21T01:28:09.483Z,20.00
2022-10-21T01:31:32.413Z,21.40
2022-10-21T01:34:39.330Z,20.00
2022-10-21T01:38:01.176Z,21.60
2022-10-21T01:41:13.114Z,20.40
2022-10-21T01:44:30.013Z,21.80
2022-10-21T01:47:33.187Z,20.60
2022-10-21T01:50:31.956Z,21.20
2022-10-21T01:53:30.730Z,26.00
2022-10-21T01:56:27.616Z,23.00
2022-10-21T01:59:24.847Z,21.40
2022-10-21T02:02:22.458Z,22.60
2022-10-21T02:05:21.641Z,18.60
2022-10-21T02:08:18.384Z,18.00
2022-10-21T02:11:15.413Z,18.60
2022-10-21T02:14:19.882Z,22.20
2022-10-21T02:17:18.622Z,23.40
2022-10-21T02:20:15.431Z,25.60
2022-10-21T02:23:13.617Z,25.20
2022-10-21T02:26:10.431Z,24.20
2022-10-21T02:29:07.585Z,24.60
2022-10-21T02:32:26.029Z,20.40
2022-10-21T02:35:33.174Z,26.20
2022-10-21T02:38:37.868Z,27.80
2022-10-21T02:41:34.439Z,22.60
2022-10-21T02:44:31.432Z,27.40
2022-10-21T02:47:29.358Z,28.60
2022-10-21T02:50:26.523Z,27.00
2022-10-21T02:53:23.688Z,25.20
2022-10-21T02:56:20.339Z,23.80
2022-10-21T02:59:17.584Z,26.00
2022-10-21T03:02:14.452Z,24.40
2022-10-21T03:05:12.965Z,27.00
2022-10-21T03:08:10.808Z,25.40
2022-10-21T03:11:07.426Z,22.80
2022-10-21T03:14:04.667Z,22.00
2022-10-21T03:17:01.710Z,19.20
2022-10-21T03:19:58.548Z,22.40
2022-10-21T03:22:55.308Z,25.00
2022-10-21T03:25:52.813Z,23.60
2022-10-21T03:28:50.687Z,24.20
2022-10-21T03:31:47.529Z,26.40
2022-10-21T03:34:44.506Z,20.60
2022-10-21T03:37:41.428Z,22.80
2022-10-21T03:40:38.751Z,20.60
2022-10-21T03:43:35.611Z,24.60
2022-10-21T03:46:32.749Z,22.40
2022-10-21T03:49:29.447Z,24.00
2022-10-21T03:52:26.366Z,26.00
2022-10-21T03:55:25.287Z,21.60
2022-10-21T03:58:22.988Z,22.80
2022-10-21T04:01:19.480Z,23.00
2022-10-21T04:04:16.760Z,22.60
2022-10-21T04:07:13.650Z,24.20
2022-10-21T04:10:10.635Z,21.60
2022-10-21T04:13:07.650Z,22.40
2022-10-21T04:16:05.741Z,18.00
2022-10-21T04:19:02.441Z,20.60
2022-10-21T04:21:59.410Z,22.60
2022-10-21T04:24:59.695Z,16.40
2022-10-21T04:27:59.793Z,15.60
2022-10-21T04:30:56.669Z,18.20
2022-10-21T04:33:53.583Z,23.40
2022-10-21T04:36:50.764Z,26.20
2022-10-21T04:39:47.558Z,19.20
2022-10-21T04:42:48.561Z,24.00
2022-10-21T04:45:45.604Z,18.40
2022-10-21T04:48:43.279Z,19.00
2022-10-21T04:51:40.361Z,19.00
2022-10-21T04:54:37.756Z,22.00
2022-10-21T04:57:34.297Z,18.00
2022-10-21T05:00:31.547Z,19.20
2022-10-21T05:03:28.549Z,19.60
2022-10-21T05:06:25.598Z,22.20
2022-10-21T05:09:22.650Z,17.40
2022-10-21T05:12:20.018Z,18.20
2022-10-21T05:15:17.849Z,17.60
2022-10-21T05:18:14.661Z,17.80
2022-10-21T05:21:11.809Z,16.80
2022-10-21T05:24:08.865Z,17.20
2022-10-21T05:27:05.583Z,16.60
2022-10-21T05:30:02.609Z,15.80
2022-10-21T05:32:59.547Z,17.20
2022-10-21T05:36:01.830Z,16.20
2022-10-21T05:38:58.693Z,17.20
2022-10-21T05:41:55.955Z,16.80
2022-10-21T05:44:52.482Z,16.60
2022-10-21T05:47:49.653Z,13.00
2022-10-21T05:50:47.239Z,19.00
2022-10-21T05:53:44.912Z,11.80
2022-10-21T05:56:42.646Z,17.20
2022-10-21T05:59:39.638Z,13.40
2022-10-21T06:02:36.786Z,17.20
2022-10-21T06:05:33.624Z,21.00
2022-10-21T06:08:31.121Z,15.00
2022-10-21T06:11:28.994Z,13.40
2022-10-21T06:14:26.469Z,15.80
2022-10-21T06:17:23.653Z,12.40
2022-10-21T06:20:21.056Z,16.20
2022-10-21T06:23:17.782Z,17.20
2022-10-21T06:26:15.679Z,18.40
2022-10-21T06:29:14.952Z,18.60
2022-10-21T06:32:12.338Z,15.60
2022-10-21T06:35:10.003Z,18.20
2022-10-21T06:38:07.090Z,17.60
2022-10-21T06:41:12.140Z,15.60
2022-10-21T06:44:10.674Z,13.00
2022-10-21T06:47:08.071Z,14.20
2022-10-21T06:50:05.148Z,11.40
2022-10-21T06:53:02.652Z,11.20
2022-10-21T06:56:10.628Z,11.20
2022-10-21T06:59:07.773Z,9.40
2022-10-21T07:02:05.099Z,11.40
2022-10-21T07:05:01.965Z,13.00
2022-10-21T07:07:59.506Z,17.00
2022-10-21T07:10:56.793Z,26.00
2022-10-21T07:13:53.719Z,17.00
2022-10-21T07:16:51.708Z,22.80
2022-10-21T07:19:49.155Z,23.00
2022-10-21T07:22:46.882Z,21.20
2022-10-21T07:25:43.816Z,20.40
2022-10-21T07:28:42.177Z,22.60
2022-10-21T07:31:40.045Z,21.00
2022-10-21T07:34:36.813Z,23.20
2022-10-21T07:37:33.632Z,22.60
2022-10-21T07:40:31.013Z,17.20
2022-10-21T07:43:27.944Z,16.40
2022-10-21T07:46:24.821Z,21.80
2022-10-21T07:49:21.665Z,20.60
2022-10-21T07:52:19.063Z,18.20
2022-10-21T07:55:16.716Z,20.80
2022-10-21T07:58:13.785Z,24.00
2022-10-21T08:01:11.066Z,21.60
2022-10-21T08:04:07.613Z,24.60
2022-10-21T08:07:05.040Z,22.40
2022-10-21T08:10:02.098Z,22.20
2022-10-21T08:12:58.993Z,25.60
2022-10-21T08:15:57.002Z,26.60
2022-10-21T08:18:54.143Z,23.40
2022-10-21T08:21:51.626Z,22.00
2022-10-21T08:24:49.027Z,32.60
2022-10-21T08:27:46.032Z,31.60
2022-10-21T08:30:43.608Z,29.40
2022-10-21T08:33:40.770Z,31.20
2022-10-21T08:36:37.987Z,28.40
2022-10-21T08:39:34.622Z,23.60
2022-10-21T08:42:32.073Z,24.00
2022-10-21T08:45:44.105Z,20.60
2022-10-21T08:48:48.760Z,24.40
2022-10-21T08:51:50.574Z,26.20
2022-10-21T08:54:52.861Z,20.80
2022-10-21T08:57:50.391Z,27.00
2022-10-21T09:00:51.098Z,24.00
2022-10-21T09:04:00.034Z,21.00
2022-10-21T09:07:15.246Z,19.40
2022-10-21T09:10:35.912Z,20.80
2022-10-21T09:13:50.363Z,17.60
2022-10-21T09:17:13.384Z,16.00
2022-10-21T09:20:34.411Z,17.00
2022-10-21T09:26:34.727Z,18.80
2022-10-21T09:29:37.453Z,19.40
2022-10-21T09:32:37.979Z,20.40
2022-10-21T09:35:48.248Z,16.60
2022-10-21T09:39:05.658Z,18.20
2022-10-21T09:42:07.342Z,15.80
2022-10-21T09:45:33.967Z,16.80
2022-10-21T09:48:53.952Z,14.00
2022-10-21T09:51:56.633Z,17.40
2022-10-21T09:54:53.937Z,15.20
2022-10-21T09:57:56.242Z,14.20
2022-10-21T10:00:53.004Z,16.00
2022-10-21T10:03:51.149Z,15.00
2022-10-21T10:06:47.888Z,17.60
2022-10-21T10:09:48.043Z,12.60
2022-10-21T10:12:44.722Z,13.80
2022-10-21T10:15:43.120Z,14.00
2022-10-21T10:18:40.312Z,18.60
2022-10-21T10:21:36.927Z,12.20
2022-10-21T10:24:33.799Z,13.60
2022-10-21T10:27:30.759Z,12.00
2022-10-21T10:30:38.995Z,10.20
2022-10-21T10:33:36.041Z,13.60
2022-10-21T10:36:42.339Z,8.00
2022-10-21T10:39:39.247Z,9.60
2022-10-21T10:42:38.016Z,11.20
2022-10-21T10:45:34.940Z,12.60
2022-10-21T10:48:42.544Z,13.40
2022-10-21T10:51:42.795Z,12.60
2022-10-21T10:54:41.042Z,13.00
2022-10-21T10:57:52.003Z,10.40
2022-10-21T11:00:57.666Z,13.40
2022-10-21T11:03:57.690Z,12.80
2022-10-21T11:06:58.665Z,11.40
2022-10-21T11:09:59.076Z,9.00
2022-10-21T11:12:56.015Z,9.80
2022-10-21T11:16:50.530Z,10.40
2022-10-21T11:20:18.846Z,10.80
2022-10-21T11:23:47.484Z,11.40
2022-10-21T11:27:00.308Z,9.20
2022-10-21T11:30:03.488Z,10.40
2022-10-21T11:33:01.134Z,6.00
2022-10-21T11:36:36.508Z,6.00
2022-10-21T11:39:42.970Z,9.40
2022-10-21T11:42:44.223Z,2.80
2022-10-21T11:46:05.130Z,9.20
2022-10-21T11:49:37.218Z,6.00
2022-10-21T11:53:14.312Z,10.20
2022-10-21T11:56:19.489Z,10.00
2022-10-21T11:59:43.408Z,6.20
2022-10-21T12:02:45.775Z,10.40
2022-10-21T12:05:51.266Z,8.80
2022-10-21T12:08:55.877Z,10.00
2022-10-21T12:11:57.076Z,9.00
2022-10-21T12:14:58.858Z,11.00
2022-10-21T12:17:56.391Z,9.40
2022-10-21T12:20:54.306Z,4.60
2022-10-21T12:23:55.021Z,9.00
2022-10-21T12:26:56.781Z,10.00
2022-10-21T12:29:57.030Z,9.60
2022-10-21T12:33:15.183Z,10.00
2022-10-21T12:36:14.718Z,9.60
2022-10-21T12:39:16.597Z,8.60
2022-10-21T12:42:16.003Z,6.40
2022-10-21T12:45:45.677Z,7.20
2022-10-21T12:48:46.167Z,6.80
2022-10-21T12:51:47.622Z,6.00
2022-10-21T12:55:00.691Z,6.60
2022-10-21T12:58:00.149Z,9.00
2022-10-21T13:00:57.791Z,7.80
2022-10-21T13:03:55.817Z,10.40
2022-10-21T13:06:54.592Z,6.40
2022-10-21T13:09:52.102Z,5.60
2022-10-21T13:12:49.081Z,9.60
2022-10-21T13:15:46.638Z,10.80
2022-10-21T13:18:53.934Z,6.20
2022-10-21T13:21:52.403Z,11.20
2022-10-21T13:24:49.350Z,8.20
2022-10-21T13:27:51.048Z,11.80
2022-10-21T13:30:48.105Z,9.60
2022-10-21T13:33:52.061Z,10.00
2022-10-21T13:36:50.551Z,7.00
2022-10-21T13:39:48.509Z,11.00
2022-10-21T13:42:48.389Z,14.40
2022-10-21T13:45:49.748Z,12.00
2022-10-21T13:48:48.267Z,8.20
2022-10-21T13:51:46.056Z,9.40
2022-10-21T13:57:40.760Z,10.60
2022-10-21T14:00:37.953Z,9.00
2022-10-21T14:03:35.621Z,7.40
2022-10-21T14:06:40.063Z,8.40
2022-10-21T14:09:42.421Z,9.40
2022-10-21T14:12:41.563Z,9.60
2022-10-21T14:15:43.865Z,8.40
2022-10-21T14:18:44.437Z,9.00
2022-10-21T14:21:44.024Z,6.40
2022-10-21T14:24:42.391Z,5.80
2022-10-21T14:27:39.216Z,4.80
2022-10-21T14:30:37.171Z,9.80
2022-10-21T14:33:34.474Z,6.80
2022-10-21T14:36:31.967Z,6.80
2022-10-21T14:39:28.868Z,3.80
2022-10-21T14:42:26.499Z,4.40
2022-10-21T14:45:28.465Z,5.00
2022-10-21T14:48:32.593Z,3.40
2022-10-21T14:51:35.536Z,6.80
2022-10-21T14:54:39.012Z,5.00
2022-10-21T14:58:03.678Z,6.00
2022-10-21T15:01:03.187Z,4.80
2022-10-21T15:04:00.942Z,6.00
2022-10-21T15:07:00.152Z,10.20
2022-10-21T15:10:03.844Z,6.60
2022-10-21T15:13:00.943Z,6.60
2022-10-21T15:15:59.105Z,8.20
2022-10-21T15:18:56.449Z,9.20
2022-10-21T15:22:00.761Z,9.40
2022-10-21T15:25:00.625Z,9.00
2022-10-21T15:28:00.071Z,10.00
2022-10-21T15:30:57.093Z,11.60
2022-10-21T15:33:56.421Z,11.80
2022-10-21T15:36:53.261Z,9.20
2022-10-21T15:39:50.145Z,13.80
2022-10-21T15:42:47.213Z,9.80
2022-10-21T15:45:44.123Z,10.80
2022-10-21T15:48:41.096Z,13.00
2022-10-21T15:51:38.019Z,11.00
2022-10-21T15:54:35.475Z,11.20
2022-10-21T15:57:32.281Z,11.40
2022-10-21T16:00:29.140Z,10.00
2022-10-21T16:03:28.157Z,5.40
2022-10-21T16:06:25.212Z,10.40
2022-10-21T16:09:24.840Z,8.00
2022-10-21T16:12:22.277Z,9.20
2022-10-21T16:15:19.401Z,10.00
2022-10-21T16:18:16.966Z,8.60
2022-10-21T16:21:14.961Z,9.80
2022-10-21T16:24:12.277Z,10.60
2022-10-21T16:27:12.867Z,9.80
2022-10-21T16:30:17.172Z,8.80
2022-10-21T16:33:14.030Z,7.00
2022-10-21T16:36:22.454Z,9.00
2022-10-21T16:39:20.477Z,9.80
2022-10-21T16:42:17.128Z,8.20
2022-10-21T16:45:14.064Z,10.00
2022-10-21T16:48:11.507Z,10.00
2022-10-21T16:51:09.256Z,8.00
2022-10-21T16:54:06.162Z,12.20
2022-10-21T16:57:06.936Z,11.00
2022-10-21T17:00:04.805Z,8.00
2022-10-21T17:03:02.186Z,13.40
2022-10-21T17:05:59.142Z,10.00
2022-10-21T17:08:56.354Z,10.60
2022-10-21T17:11:53.100Z,10.00
2022-10-21T17:14:49.931Z,12.20
2022-10-21T17:17:47.227Z,16.00
2022-10-21T17:20:44.129Z,16.00
2022-10-21T17:23:41.529Z,14.00
2022-10-21T17:26:38.625Z,16.20
2022-10-21T17:29:35.629Z,18.40
2022-10-21T17:32:32.362Z,14.80
2022-10-21T17:35:29.227Z,11.40
2022-10-21T17:38:26.415Z,13.00
2022-10-21T17:41:23.501Z,11.00
2022-10-21T17:44:20.151Z,10.40
2022-10-21T17:47:17.651Z,13.80
2022-10-21T17:50:14.168Z,9.40
2022-10-21T17:53:11.203Z,10.40
2022-10-21T17:56:08.260Z,11.00
2022-10-21T17:59:05.304Z,9.00
2022-10-21T18:02:02.033Z,12.20
2022-10-21T18:05:00.808Z,12.20
2022-10-21T18:07:58.541Z,9.80
2022-10-21T18:10:58.351Z,11.40
2022-10-21T18:13:55.397Z,12.40
2022-10-21T18:16:53.304Z,16.40
2022-10-21T18:19:51.249Z,16.40
2022-10-21T18:22:48.377Z,12.20
2022-10-21T18:25:45.195Z,16.20
2022-10-21T18:28:42.410Z,12.20
2022-10-21T18:31:39.690Z,13.00
2022-10-21T18:34:37.520Z,15.00
2022-10-21T18:37:35.080Z,6.00
2022-10-21T18:40:33.591Z,9.80
2022-10-21T18:43:30.153Z,13.60
2022-10-21T18:46:28.635Z,17.80
2022-10-21T18:49:25.579Z,21.00
2022-10-21T18:52:22.526Z,13.20
2022-10-21T18:55:19.561Z,12.00
2022-10-21T18:58:16.309Z,10.40
2022-10-21T19:01:15.147Z,11.80
2022-10-21T19:07:10.572Z,11.00
2022-10-21T19:10:08.018Z,13.20
2022-10-21T19:13:05.355Z,11.20
2022-10-21T19:16:02.236Z,9.40
2022-10-21T19:18:59.804Z,11.80
2022-10-21T19:21:57.489Z,12.20
2022-10-21T19:24:54.285Z,10.00
2022-10-21T19:27:51.496Z,14.40
2022-10-21T19:30:48.285Z,11.40
2022-10-21T19:33:45.430Z,10.00
2022-10-21T19:36:42.640Z,8.20
2022-10-21T19:39:40.215Z,11.00
2022-10-21T19:42:38.064Z,13.00
2022-10-21T19:45:35.826Z,9.80
2022-10-21T19:48:35.505Z,7.60
2022-10-21T19:51:32.313Z,11.60
2022-10-21T19:54:29.205Z,9.00
2022-10-21T19:57:26.435Z,12.20
2022-10-21T20:00:23.371Z,26.20
2022-10-21T20:03:20.168Z,28.00
2022-10-21T20:06:22.090Z,23.20
2022-10-21T20:09:19.408Z,17.80
2022-10-21T20:12:16.751Z,18.60
2022-10-21T20:15:13.300Z,17.60
2022-10-21T20:18:10.182Z,17.60
2022-10-21T20:21:07.751Z,16.20
2022-10-21T20:24:04.920Z,21.00
2022-10-21T20:27:02.485Z,15.20
2022-10-21T20:29:59.683Z,14.20
2022-10-21T20:32:56.644Z,15.00
2022-10-21T20:35:53.485Z,16.00
2022-10-21T20:38:50.659Z,16.00
2022-10-21T20:41:47.391Z,14.80
2022-10-21T20:47:46.438Z,16.80
2022-10-21T20:50:43.228Z,15.60
2022-10-21T20:53:44.606Z,13.80
2022-10-21T20:56:41.812Z,12.00
2022-10-21T20:59:38.341Z,14.80
2022-10-21T21:02:36.920Z,16.20
2022-10-21T21:05:38.140Z,18.60
2022-10-21T21:08:37.097Z,16.60
2022-10-21T21:11:34.436Z,13.80
2022-10-21T21:14:31.619Z,15.80
2022-10-21T21:17:28.478Z,17.40
2022-10-21T21:20:25.453Z,16.40
2022-10-21T21:23:22.393Z,16.00
2022-10-21T21:26:23.457Z,16.40
2022-10-21T21:29:20.835Z,15.00
2022-10-21T21:32:19.129Z,19.20
2022-10-21T21:35:16.818Z,20.40
2022-10-21T21:38:13.597Z,20.80
2022-10-21T21:41:10.909Z,20.00
2022-10-21T21:44:09.325Z,17.20
2022-10-21T21:47:06.812Z,15.60
2022-10-21T21:50:03.592Z,18.40
2022-10-21T21:53:00.715Z,17.20
2022-10-21T21:56:03.342Z,17.00
2022-10-21T21:59:00.401Z,21.40
2022-10-21T22:01:57.421Z,18.00
2022-10-21T22:04:54.763Z,10.80
2022-10-21T22:07:51.762Z,16.60
2022-10-21T22:10:49.715Z,17.60
2022-10-21T22:13:46.714Z,15.80
2022-10-21T22:16:43.457Z,15.80
2022-10-21T22:19:40.347Z,16.60
2022-10-21T22:22:37.366Z,17.80
2022-10-21T22:25:34.588Z,16.80
2022-10-21T22:28:31.635Z,16.40
2022-10-21T22:31:30.523Z,15.00
2022-10-21T22:34:28.530Z,13.60
2022-10-21T22:37:25.380Z,17.00
2022-10-21T22:40:22.107Z,15.20
2022-10-21T22:43:19.536Z,17.00
2022-10-21T22:49:33.658Z,12.40
2022-10-21T22:52:30.383Z,16.60
2022-10-21T22:55:27.426Z,17.20
2022-10-21T22:58:24.350Z,19.20
2022-10-21T23:01:21.826Z,18.40
2022-10-21T23:04:19.365Z,17.00
2022-10-21T23:07:16.805Z,17.20
2022-10-21T23:10:13.941Z,13.00
2022-10-21T23:13:11.284Z,15.60
2022-10-21T23:16:08.743Z,17.40
2022-10-21T23:19:06.990Z,15.20
2022-10-21T23:22:04.915Z,15.00
2022-10-21T23:25:01.701Z,12.80
2022-10-21T23:27:58.416Z,16.00
2022-10-21T23:30:56.133Z,18.80
2022-10-21T23:33:53.668Z,17.20
2022-10-21T23:36:50.551Z,18.40
2022-10-21T23:39:47.287Z,15.20
2022-10-21T23:42:44.770Z,14.20
2022-10-21T23:45:41.710Z,17.20
2022-10-21T23:48:38.515Z,14.60
2022-10-21T23:51:35.573Z,15.20
2022-10-21T23:54:32.778Z,17.40
2022-10-21T23:57:29.552Z,12.20
